Time;durP1;ratioP1;P1;durP2;ratioP2;P2;SDS_P1;SDS_P2;PMS_P1;PMS_P2;Temp;Humidity;BMP_temperature;BMP_pressure;BME280_temperature;BME280_humidity;BME280_pressure;Samples;Min_cycle;Max_cycle;Signal;HPM_P1;HPM_P2
2021/04/28 00:00:06;;;;;;;6.07;3.23;;;5.30;99.90;;;;;;5039556;28;20213;-80
2021/04/28 00:02:32;;;;;;;5.93;2.43;;;5.20;99.90;;;;;;5036503;28;20220;-79
2021/04/28 00:04:59;;;;;;;3.13;2.13;;;5.30;99.90;;;;;;5038603;28;20266;-80
2021/04/28 00:07:25;;;;;;;1.40;1.30;;;5.30;99.90;;;;;;5054824;28;20299;-80
2021/04/28 00:09:51;;;;;;;1.40;1.30;;;5.30;99.90;;;;;;5038551;28;20743;-79
2021/04/28 00:12:17;;;;;;;4.07;2.30;;;5.40;99.90;;;;;;5038693;28;20768;-79
2021/04/28 00:14:43;;;;;;;2.17;1.93;;;5.50;99.90;;;;;;5053579;28;20224;-79
2021/04/28 00:17:10;;;;;;;1.53;1.43;;;5.50;99.90;;;;;;5053541;28;20591;-80
2021/04/28 00:19:36;;;;;;;1.60;1.50;;;5.50;99.90;;;;;;5036088;28;20327;-79
2021/04/28 00:22:02;;;;;;;1.83;1.73;;;5.50;99.90;;;;;;5052648;28;20550;-78
2021/04/28 00:24:27;;;;;;;2.30;2.00;;;5.50;99.90;;;;;;5052743;28;20621;-78
2021/04/28 00:26:53;;;;;;;2.20;1.70;;;5.40;99.90;;;;;;5053731;28;20212;-79
2021/04/28 00:29:19;;;;;;;2.20;1.43;;;5.50;99.90;;;;;;5018930;28;20185;-78
2021/04/28 00:31:45;;;;;;;1.93;1.70;;;5.40;99.90;;;;;;5038132;28;20304;-81
2021/04/28 00:34:11;;;;;;;0.87;0.80;;;5.40;99.90;;;;;;5035475;28;20224;-78
2021/04/28 00:36:36;;;;;;;1.27;1.23;;;5.30;99.90;;;;;;5036974;28;20225;-78
2021/04/28 00:39:03;;;;;;;3.30;1.27;;;5.20;99.90;;;;;;5036898;28;20259;-78
2021/04/28 00:41:29;;;;;;;1.43;1.33;;;5.10;99.90;;;;;;5036824;28;21237;-80
2021/04/28 00:43:55;;;;;;;2.30;1.53;;;5.10;99.90;;;;;;5036810;28;20197;-81
2021/04/28 00:46:21;;;;;;;4.97;1.60;;;5.00;99.90;;;;;;5071153;28;20213;-79
2021/04/28 00:48:47;;;;;;;1.83;1.73;;;5.00;99.90;;;;;;5035874;28;20256;-79
2021/04/28 00:51:13;;;;;;;2.17;1.97;;;4.90;99.90;;;;;;5053140;28;20328;-80
2021/04/28 00:53:40;;;;;;;1.67;1.57;;;4.90;99.90;;;;;;5039096;28;20216;-78
2021/04/28 00:56:06;;;;;;;1.70;1.47;;;4.80;99.90;;;;;;5040871;28;20320;-80
2021/04/28 00:58:32;;;;;;;4.17;2.30;;;4.80;99.90;;;;;;5063768;28;20706;-79
2021/04/28 01:00:58;;;;;;;2.33;1.90;;;4.80;99.90;;;;;;5034534;28;20213;-78
2021/04/28 01:03:27;;;;;;;1.50;1.40;;;4.70;99.90;;;;;;5052942;28;20220;-81
2021/04/28 01:06:01;;;;;;;2.67;2.27;;;4.80;99.90;;;;;;5054392;28;20251;-79
2021/04/28 01:08:27;;;;;;;1.93;1.77;;;4.70;99.90;;;;;;5051922;28;20180;-78
2021/04/28 01:10:54;;;;;;;2.40;1.53;;;4.60;99.90;;;;;;5056089;28;20193;-78
2021/04/28 01:13:21;;;;;;;1.80;1.30;;;4.60;99.90;;;;;;5037259;28;20235;-82
2021/04/28 01:15:47;;;;;;;2.20;2.00;;;4.60;99.90;;;;;;5051823;28;20217;-79
2021/04/28 01:18:14;;;;;;;1.77;1.60;;;4.50;99.90;;;;;;5051143;28;20267;-79
2021/04/28 01:20:40;;;;;;;1.00;1.00;;;4.40;99.90;;;;;;5051178;28;20326;-80
2021/04/28 01:23:08;;;;;;;2.20;2.03;;;4.40;99.90;;;;;;5071753;28;20288;-79
2021/04/28 01:25:35;;;;;;;2.37;2.00;;;4.40;99.90;;;;;;5051995;28;20224;-81
2021/04/28 01:28:09;;;;;;;2.07;1.50;;;4.40;99.90;;;;;;5052982;28;20231;-82
2021/04/28 01:30:47;;;;;;;2.03;1.53;;;4.40;99.90;;;;;;5055342;28;20282;-79
2021/04/28 01:33:18;;;;;;;1.60;1.50;;;4.30;99.90;;;;;;5068446;28;20213;-81
2021/04/28 01:35:46;;;;;;;1.57;1.43;;;4.20;99.90;;;;;;5053292;28;20212;-80
2021/04/28 01:38:13;;;;;;;1.30;1.20;;;4.20;99.90;;;;;;5051244;28;20238;-79
2021/04/28 01:40:40;;;;;;;1.50;1.40;;;4.20;99.90;;;;;;5038579;28;20513;-80
2021/04/28 01:43:06;;;;;;;4.27;1.53;;;4.30;99.90;;;;;;5053050;28;20283;-80
2021/04/28 01:45:33;;;;;;;1.43;1.33;;;4.20;99.90;;;;;;5050979;28;20208;-82
2021/04/28 01:48:05;;;;;;;0.80;0.80;;;4.30;99.90;;;;;;5049921;28;20340;-77
2021/04/28 01:50:32;;;;;;;5.40;1.77;;;4.20;99.90;;;;;;5047025;28;20332;-78
2021/04/28 01:52:58;;;;;;;1.07;1.07;;;4.20;99.90;;;;;;5054945;28;20236;-79
2021/04/28 01:55:24;;;;;;;1.80;1.27;;;4.10;99.90;;;;;;5016233;28;20248;-78
2021/04/28 01:57:52;;;;;;;1.03;0.93;;;4.10;99.90;;;;;;5032247;28;20249;-80
2021/04/28 02:00:21;;;;;;;2.40;0.83;;;4.00;99.90;;;;;;5032269;28;20229;-77
2021/04/28 02:02:49;;;;;;;1.93;1.40;;;3.80;99.90;;;;;;5047381;28;20225;-78
2021/04/28 02:05:16;;;;;;;1.50;1.40;;;3.60;99.90;;;;;;5048424;28;20539;-80
2021/04/28 02:07:43;;;;;;;1.33;1.20;;;3.50;99.90;;;;;;5048922;28;20189;-80
2021/04/28 02:10:10;;;;;;;1.40;1.30;;;3.50;99.90;;;;;;5029859;28;20222;-78
2021/04/28 02:12:36;;;;;;;1.40;1.30;;;3.70;99.90;;;;;;5047499;28;20267;-80
2021/04/28 02:15:06;;;;;;;1.90;1.27;;;3.90;99.90;;;;;;5048472;28;20228;-78
2021/04/28 02:17:33;;;;;;;1.37;1.00;;;4.10;99.90;;;;;;5046858;28;20221;-79
2021/04/28 02:20:00;;;;;;;1.63;1.53;;;4.20;99.90;;;;;;5046101;28;20202;-77
2021/04/28 02:22:27;;;;;;;0.80;0.80;;;4.20;99.90;;;;;;5048655;28;20245;-78
2021/04/28 02:24:54;;;;;;;1.07;1.07;;;4.20;99.90;;;;;;5045696;28;20209;-81
2021/04/28 02:27:20;;;;;;;5.27;1.83;;;4.20;99.90;;;;;;5026541;28;20220;-77
2021/04/28 02:29:46;;;;;;;1.30;1.20;;;4.00;99.90;;;;;;5024535;28;20213;-79
2021/04/28 02:32:11;;;;;;;1.93;1.83;;;3.70;99.90;;;;;;5046295;28;20205;-80
2021/04/28 02:34:37;;;;;;;1.50;1.43;;;3.70;99.90;;;;;;5027567;28;20220;-81
2021/04/28 02:37:04;;;;;;;2.50;1.60;;;3.60;99.90;;;;;;5031751;28;21493;-80
2021/04/28 02:39:38;;;;;;;2.67;2.47;;;3.60;99.90;;;;;;5049426;28;20214;-78
2021/04/28 02:42:05;;;;;;;2.60;2.40;;;3.70;99.90;;;;;;5047736;28;20756;-79
2021/04/28 02:44:33;;;;;;;1.50;1.50;;;3.80;99.90;;;;;;5017812;28;20216;-79
2021/04/28 02:47:01;;;;;;;3.93;1.90;;;3.90;99.90;;;;;;5051116;28;20649;-80
2021/04/28 02:49:28;;;;;;;2.00;1.90;;;3.90;99.90;;;;;;5050839;28;20223;-78
2021/04/28 02:51:54;;;;;;;2.03;1.93;;;4.00;99.90;;;;;;5029955;28;20586;-79
2021/04/28 02:54:21;;;;;;;2.13;2.00;;;4.00;99.90;;;;;;5046686;28;20318;-81
2021/04/28 02:56:50;;;;;;;5.57;1.33;;;3.90;99.90;;;;;;5031587;28;20255;-79
2021/04/28 02:59:19;;;;;;;2.17;1.97;;;3.70;99.90;;;;;;5047167;28;20186;-79
2021/04/28 03:01:46;;;;;;;1.80;1.70;;;3.40;99.90;;;;;;5050949;28;20291;-82
2021/04/28 03:04:16;;;;;;;1.83;1.63;;;3.30;99.90;;;;;;5046914;28;21401;-80
2021/04/28 03:06:43;;;;;;;3.40;1.43;;;3.30;99.90;;;;;;5046568;28;20213;-81
2021/04/28 03:09:09;;;;;;;5.10;1.70;;;3.60;99.90;;;;;;5049875;28;20225;-82
2021/04/28 03:11:37;;;;;;;1.80;1.67;;;3.70;99.90;;;;;;5015678;28;20234;-81
2021/04/28 03:14:04;;;;;;;3.37;1.83;;;3.70;99.90;;;;;;5049552;28;20189;-80
2021/04/28 03:16:31;;;;;;;0.73;0.73;;;3.70;99.90;;;;;;5030968;28;21240;-78
2021/04/28 03:19:05;;;;;;;1.10;1.10;;;3.70;99.90;;;;;;5048267;28;20252;-80
2021/04/28 03:21:34;;;;;;;1.00;1.00;;;3.70;99.90;;;;;;5030480;28;20217;-80
2021/04/28 03:24:01;;;;;;;2.93;1.87;;;3.70;99.90;;;;;;5050571;28;20206;-82
2021/04/28 03:26:28;;;;;;;1.87;1.37;;;3.70;99.90;;;;;;5054220;28;20177;-81
2021/04/28 03:28:54;;;;;;;2.73;1.33;;;3.70;99.90;;;;;;5053490;28;20201;-80
2021/04/28 03:31:20;;;;;;;2.43;1.97;;;3.70;99.90;;;;;;5034623;28;20232;-80
2021/04/28 03:33:46;;;;;;;1.70;1.60;;;3.70;99.90;;;;;;5052104;28;20304;-82
2021/04/28 03:36:12;;;;;;;2.50;1.70;;;3.60;99.90;;;;;;5053187;28;20717;-81
2021/04/28 03:38:38;;;;;;;1.77;1.67;;;3.60;99.90;;;;;;5050892;28;21171;-81
2021/04/28 03:41:04;;;;;;;3.07;1.57;;;3.70;99.90;;;;;;5036396;28;20263;-80
2021/04/28 03:43:30;;;;;;;0.83;0.83;;;3.80;99.90;;;;;;5050276;28;20224;-83
2021/04/28 03:45:56;;;;;;;1.43;1.33;;;3.60;99.90;;;;;;5034932;28;20233;-81
2021/04/28 03:48:22;;;;;;;1.80;1.70;;;3.30;99.90;;;;;;5050310;28;20270;-80
2021/04/28 03:50:48;;;;;;;1.47;1.33;;;3.00;99.90;;;;;;5053178;28;20221;-81
2021/04/28 03:53:13;;;;;;;1.53;1.43;;;3.00;99.90;;;;;;5019467;28;20740;-78
2021/04/28 03:55:40;;;;;;;1.57;1.47;;;3.30;99.90;;;;;;5036094;28;20729;-78
2021/04/28 03:58:06;;;;;;;1.00;1.00;;;3.40;99.90;;;;;;5053735;28;20220;-79
2021/04/28 04:00:31;;;;;;;0.60;0.60;;;3.50;99.90;;;;;;5036435;28;20228;-80
2021/04/28 04:02:57;;;;;;;4.03;1.57;;;3.50;99.90;;;;;;5033186;28;20816;-79
2021/04/28 04:05:23;;;;;;;2.73;1.40;;;3.60;99.90;;;;;;5031514;28;20200;-79
2021/04/28 04:07:50;;;;;;;0.97;0.97;;;3.60;99.90;;;;;;5046044;28;20188;-79
2021/04/28 04:10:16;;;;;;;1.10;1.10;;;3.60;99.90;;;;;;5046495;28;20229;-78
2021/04/28 04:12:42;;;;;;;0.77;0.77;;;3.50;99.90;;;;;;5033835;28;20236;-80
2021/04/28 04:15:08;;;;;;;1.73;1.43;;;3.40;99.90;;;;;;5049383;28;20225;-79
2021/04/28 04:17:34;;;;;;;1.83;1.30;;;3.40;99.90;;;;;;5050269;28;20221;-80
2021/04/28 04:20:00;;;;;;;2.37;1.83;;;3.50;99.90;;;;;;5035180;28;20556;-78
2021/04/28 04:22:26;;;;;;;1.53;1.37;;;3.50;99.90;;;;;;5050608;28;20221;-79
2021/04/28 04:24:52;;;;;;;2.30;1.47;;;3.50;99.90;;;;;;5033965;28;20222;-79
2021/04/28 04:27:18;;;;;;;1.73;1.30;;;3.50;99.90;;;;;;5051566;28;20705;-79
2021/04/28 04:29:44;;;;;;;1.03;1.03;;;3.60;99.90;;;;;;5049928;28;20325;-79
2021/04/28 04:32:10;;;;;;;1.43;1.30;;;3.50;99.90;;;;;;5052430;28;20287;-80
2021/04/28 04:34:36;;;;;;;2.13;2.03;;;3.30;99.90;;;;;;5037994;28;20217;-80
2021/04/28 04:37:03;;;;;;;1.10;1.00;;;3.10;99.90;;;;;;5050415;28;20213;-80
2021/04/28 04:39:29;;;;;;;0.77;0.77;;;3.00;99.90;;;;;;5050426;28;20584;-78
2021/04/28 04:41:55;;;;;;;0.70;0.70;;;3.00;99.90;;;;;;5038020;28;20226;-79
2021/04/28 04:44:21;;;;;;;2.57;2.40;;;3.00;99.90;;;;;;5016852;28;21193;-81
2021/04/28 04:46:47;;;;;;;1.23;1.13;;;3.00;99.90;;;;;;5018310;28;20235;-80
2021/04/28 04:49:12;;;;;;;1.67;1.57;;;3.00;99.90;;;;;;5032721;28;20216;-82
2021/04/28 04:51:38;;;;;;;1.27;1.27;;;3.00;99.90;;;;;;5032644;28;20237;-82
2021/04/28 04:54:05;;;;;;;1.00;0.90;;;3.00;99.90;;;;;;5017120;28;20230;-80
2021/04/28 04:56:30;;;;;;;2.03;1.20;;;3.30;99.90;;;;;;5052544;28;20932;-80
2021/04/28 04:58:56;;;;;;;1.80;1.70;;;3.50;99.90;;;;;;5049495;28;20868;-81
2021/04/28 05:01:22;;;;;;;0.83;0.83;;;3.60;99.90;;;;;;5047783;28;20226;-81
2021/04/28 05:03:47;;;;;;;2.40;1.17;;;3.70;99.90;;;;;;5033518;28;20234;-78
2021/04/28 05:06:13;;;;;;;1.73;1.63;;;3.80;99.90;;;;;;5016072;28;20622;-79
2021/04/28 05:08:39;;;;;;;1.83;1.67;;;3.70;99.90;;;;;;5018802;28;20316;-78
2021/04/28 05:11:05;;;;;;;1.27;1.17;;;3.70;99.90;;;;;;5052764;28;20193;-79
2021/04/28 05:13:30;;;;;;;0.70;0.70;;;3.80;99.90;;;;;;5033047;28;20705;-80
2021/04/28 05:15:56;;;;;;;1.00;1.00;;;4.00;99.90;;;;;;5029006;28;20283;-80
2021/04/28 05:18:22;;;;;;;1.80;1.70;;;5.00;99.90;;;;;;5018316;28;20777;-80
2021/04/28 05:20:48;;;;;;;2.67;1.73;;;6.20;99.90;;;;;;5032007;28;20226;-80
2021/04/28 05:23:13;;;;;;;2.63;1.30;;;7.90;99.90;;;;;;5034139;28;20822;-78
2021/04/28 05:25:39;;;;;;;2.50;1.90;;;8.20;99.90;;;;;;5047704;28;20190;-80
2021/04/28 05:28:05;;;;;;;1.07;1.03;;;8.70;99.90;;;;;;5049930;28;20223;-78
2021/04/28 05:30:31;;;;;;;1.40;1.30;;;9.60;99.90;;;;;;5030853;28;20222;-79
2021/04/28 05:32:57;;;;;;;2.83;1.63;;;10.00;99.90;;;;;;5031408;28;20710;-80
2021/04/28 05:35:23;;;;;;;1.20;1.20;;;10.60;99.90;;;;;;5032778;28;20206;-81
2021/04/28 05:37:49;;;;;;;5.60;2.53;;;11.10;99.90;;;;;;5033131;28;20185;-79
2021/04/28 05:40:16;;;;;;;2.83;1.83;;;12.10;99.90;;;;;;5049137;28;20210;-81
2021/04/28 05:42:41;;;;;;;3.67;2.10;;;12.90;99.90;;;;;;5049471;28;20231;-83
2021/04/28 05:45:09;;;;;;;3.93;1.60;;;13.60;99.90;;;;;;5033139;28;20240;-78
2021/04/28 05:47:51;;;;;;;1.60;1.50;;;13.10;99.90;;;;;;5034547;28;20290;-79
2021/04/28 05:50:18;;;;;;;3.27;1.93;;;12.50;99.90;;;;;;5049486;28;20699;-79
2021/04/28 05:52:44;;;;;;;6.27;2.53;;;13.50;99.90;;;;;;5051479;28;20204;-79
2021/04/28 05:55:11;;;;;;;2.30;1.07;;;15.20;99.90;;;;;;5051372;28;20221;-80
2021/04/28 05:57:38;;;;;;;1.90;1.77;;;15.90;99.90;;;;;;5049813;28;20213;-80
2021/04/28 06:00:09;;;;;;;3.33;1.43;;;15.40;99.90;;;;;;5052720;28;20217;-81
2021/04/28 06:02:35;;;;;;;2.43;1.93;;;16.30;99.10;;;;;;5032737;28;20228;-80
2021/04/28 06:05:01;;;;;;;2.47;1.60;;;16.60;98.40;;;;;;5019635;28;20966;-82
2021/04/28 06:07:27;;;;;;;1.63;1.40;;;16.60;98.40;;;;;;5035104;28;20686;-80
2021/04/28 06:09:53;;;;;;;3.27;1.70;;;16.30;98.30;;;;;;5047941;28;20217;-82
2021/04/28 06:12:19;;;;;;;6.20;1.90;;;16.00;99.50;;;;;;5018323;28;20279;-82
2021/04/28 06:14:44;;;;;;;1.47;1.30;;;16.00;98.10;;;;;;5035626;28;20651;-81
2021/04/28 06:17:11;;;;;;;2.70;2.17;;;15.10;98.70;;;;;;5049470;28;20192;-81
2021/04/28 06:19:37;;;;;;;2.90;1.53;;;15.20;99.90;;;;;;5037082;28;20219;-81
2021/04/28 06:22:03;;;;;;;2.03;1.83;;;14.90;99.30;;;;;;5034346;28;20307;-81
2021/04/28 06:24:29;;;;;;;3.07;1.73;;;14.10;99.90;;;;;;5049785;28;20249;-80
2021/04/28 06:26:55;;;;;;;1.90;1.80;;;14.20;99.90;;;;;;5045910;28;21310;-80
2021/04/28 06:29:21;;;;;;;3.13;1.70;;;14.00;99.90;;;;;;5044708;28;21150;-81
2021/04/28 06:31:47;;;;;;;3.03;2.17;;;12.90;99.90;;;;;;5017515;28;20304;-80
2021/04/28 06:34:12;;;;;;;3.53;2.00;;;13.10;99.90;;;;;;5020418;28;20216;-81
2021/04/28 06:36:38;;;;;;;2.10;1.73;;;13.60;99.90;;;;;;5030846;28;20590;-81
2021/04/28 06:39:04;;;;;;;2.93;1.97;;;13.90;99.90;;;;;;5048770;28;20546;-81
2021/04/28 06:41:31;;;;;;;3.73;2.27;;;13.80;99.90;;;;;;5068985;28;20323;-83
2021/04/28 06:43:57;;;;;;;3.03;2.00;;;13.10;99.90;;;;;;5052345;28;20194;-80
2021/04/28 06:46:22;;;;;;;2.37;2.17;;;13.40;99.90;;;;;;5034639;28;20213;-80
2021/04/28 06:48:48;;;;;;;3.43;1.80;;;13.80;99.90;;;;;;5046386;28;20309;-81
2021/04/28 06:51:14;;;;;;;2.40;2.20;;;14.00;99.90;;;;;;5031096;28;20221;-80
2021/04/28 06:53:40;;;;;;;2.43;2.00;;;14.10;99.90;;;;;;5033219;28;20226;-82
2021/04/28 06:56:05;;;;;;;3.47;1.47;;;13.60;99.90;;;;;;5010522;28;634136;-81
2021/04/28 06:58:32;;;;;;;2.30;2.10;;;13.30;99.90;;;;;;5016424;28;20598;-82
2021/04/28 07:00:59;;;;;;;2.90;1.80;;;12.70;99.90;;;;;;5035148;28;20230;-81
2021/04/28 07:03:25;;;;;;;1.90;1.70;;;13.30;99.90;;;;;;5052312;28;20229;-82
2021/04/28 07:05:51;;;;;;;2.27;2.07;;;12.90;99.90;;;;;;5051533;28;20633;-81
2021/04/28 07:08:17;;;;;;;2.80;1.93;;;13.00;99.90;;;;;;5016961;28;20702;-81
2021/04/28 07:10:42;;;;;;;2.63;1.70;;;13.10;99.90;;;;;;5014006;28;20650;-81
2021/04/28 07:13:08;;;;;;;3.27;1.63;;;12.90;99.90;;;;;;5022175;28;20225;-82
2021/04/28 07:15:34;;;;;;;2.70;1.80;;;13.00;99.90;;;;;;5047184;28;20220;-81
2021/04/28 07:18:00;;;;;;;5.70;2.37;;;12.80;99.90;;;;;;5019149;28;21242;-81
2021/04/28 07:20:26;;;;;;;2.10;1.77;;;12.90;99.90;;;;;;5045046;28;20200;-82
2021/04/28 07:22:52;;;;;;;2.90;1.93;;;13.10;99.90;;;;;;5049400;28;20254;-79
2021/04/28 07:25:18;;;;;;;3.63;2.00;;;13.40;99.90;;;;;;5031331;28;20645;-79
2021/04/28 07:27:44;;;;;;;5.90;2.50;;;13.60;99.90;;;;;;5049591;28;20221;-79
2021/04/28 07:30:13;;;;;;;2.97;2.17;;;13.70;99.90;;;;;;5020250;28;21008;-84
2021/04/28 07:32:39;;;;;;;2.73;2.03;;;13.40;99.90;;;;;;5053497;28;20275;-84
2021/04/28 07:35:06;;;;;;;2.43;2.20;;;13.30;99.90;;;;;;5037891;28;20185;-84
2021/04/28 07:37:32;;;;;;;3.17;1.50;;;14.00;99.10;;;;;;5037558;28;20213;-83
2021/04/28 07:39:58;;;;;;;2.57;2.03;;;13.90;99.90;;;;;;5019302;28;20946;-83
2021/04/28 07:42:24;;;;;;;4.33;2.30;;;14.50;99.90;;;;;;5036047;28;20251;-83
2021/04/28 07:44:50;;;;;;;2.97;1.83;;;14.40;99.90;;;;;;5035692;28;21225;-85
2021/04/28 07:47:16;;;;;;;4.33;2.30;;;14.70;99.60;;;;;;5070198;28;20189;-85
2021/04/28 07:49:42;;;;;;;3.83;2.30;;;15.00;99.00;;;;;;5054193;28;20319;-84
2021/04/28 07:52:07;;;;;;;3.83;2.53;;;15.20;97.60;;;;;;5051575;28;20512;-84
2021/04/28 07:54:33;;;;;;;3.40;2.17;;;15.10;97.00;;;;;;5019211;28;21208;-83
2021/04/28 07:56:59;;;;;;;3.57;2.30;;;14.80;98.50;;;;;;5036643;28;20236;-85
2021/04/28 07:59:25;;;;;;;2.40;2.20;;;14.80;98.70;;;;;;5018742;28;20189;-83
2021/04/28 08:01:52;;;;;;;3.33;2.20;;;14.70;99.90;;;;;;5054554;28;20208;-83
2021/04/28 08:04:20;;;;;;;3.47;2.47;;;14.20;98.60;;;;;;5034782;28;20229;-84
2021/04/28 08:06:47;;;;;;;2.63;2.43;;;14.10;99.90;;;;;;5053957;28;20248;-83
2021/04/28 08:09:13;;;;;;;2.57;2.30;;;14.40;99.10;;;;;;5068614;28;20210;-84
2021/04/28 08:11:39;;;;;;;3.57;2.30;;;15.00;97.20;;;;;;5037000;28;20293;-84
2021/04/28 08:14:05;;;;;;;5.47;2.60;;;14.80;98.90;;;;;;5040564;28;20189;-83
2021/04/28 08:16:35;;;;;;;2.20;2.00;;;14.90;99.90;;;;;;5040747;28;20827;-83
2021/04/28 08:19:01;;;;;;;9.17;2.10;;;14.50;99.90;;;;;;5070206;28;21019;-83
2021/04/28 08:21:27;;;;;;;2.23;1.80;;;14.10;99.90;;;;;;5054785;28;20229;-83
2021/04/28 08:23:53;;;;;;;2.73;2.20;;;14.40;99.90;;;;;;5055388;28;21932;-86
2021/04/28 08:26:19;;;;;;;3.30;2.07;;;14.20;99.90;;;;;;5040762;28;20229;-87
2021/04/28 08:28:46;;;;;;;3.37;2.73;;;14.20;99.90;;;;;;5057038;28;20181;-83
2021/04/28 08:31:15;;;;;;;2.30;2.10;;;14.50;99.90;;;;;;5039502;28;20213;-83
2021/04/28 08:33:41;;;;;;;1.90;1.73;;;14.80;99.90;;;;;;5056589;28;20225;-83
2021/04/28 08:36:08;;;;;;;2.43;1.93;;;14.10;99.90;;;;;;5056879;28;20223;-84
2021/04/28 08:38:34;;;;;;;3.00;2.27;;;14.30;99.90;;;;;;5074668;28;20308;-83
2021/04/28 08:41:03;;;;;;;3.60;2.40;;;14.30;99.90;;;;;;5042507;28;20193;-84
2021/04/28 08:43:28;;;;;;;3.50;2.23;;;14.40;99.90;;;;;;5054936;28;20221;-84
2021/04/28 08:45:54;;;;;;;2.43;2.23;;;14.70;99.90;;;;;;5034541;28;20271;-83
2021/04/28 08:48:21;;;;;;;3.33;2.13;;;14.30;99.90;;;;;;5033153;28;20236;-84
2021/04/28 08:50:48;;;;;;;4.40;2.00;;;14.50;99.90;;;;;;5035294;28;20267;-85
2021/04/28 08:53:15;;;;;;;2.40;1.70;;;15.20;99.90;;;;;;5074412;28;20208;-83
2021/04/28 08:55:41;;;;;;;2.77;2.27;;;14.70;99.90;;;;;;5055960;28;20181;-84
2021/04/28 08:58:07;;;;;;;5.83;2.60;;;14.60;99.90;;;;;;5064811;28;20682;-83
2021/04/28 09:00:34;;;;;;;3.57;1.87;;;15.10;99.90;;;;;;5074875;28;20224;-83
2021/04/28 09:03:01;;;;;;;6.60;2.10;;;14.70;99.90;;;;;;5055010;28;20227;-83
2021/04/28 09:05:32;;;;;;;5.27;2.37;;;14.80;99.90;;;;;;5040735;28;20200;-83
2021/04/28 09:07:58;;;;;;;3.93;2.37;;;14.70;99.90;;;;;;5074287;28;20202;-84
2021/04/28 09:10:26;;;;;;;2.57;2.00;;;14.60;99.90;;;;;;5055571;28;20212;-83
2021/04/28 09:13:01;;;;;;;5.70;2.17;;;14.40;99.90;;;;;;5052707;28;20278;-84
2021/04/28 09:15:38;;;;;;;1.73;1.60;;;14.40;99.90;;;;;;5054543;28;20228;-85
2021/04/28 09:18:10;;;;;;;4.83;2.43;;;14.20;99.90;;;;;;5055546;28;20205;-83
2021/04/28 09:20:39;;;;;;;3.20;2.03;;;14.80;99.90;;;;;;5055051;28;20209;-83
2021/04/28 09:23:13;;;;;;;2.07;1.80;;;15.10;99.90;;;;;;5056431;28;20200;-83
2021/04/28 09:25:50;;;;;;;10.17;2.30;;;14.50;99.00;;;;;;5057080;28;20213;-83
2021/04/28 09:28:37;;;;;;;3.93;2.27;;;14.90;97.70;;;;;;5054109;28;20231;-83
2021/04/28 09:31:05;;;;;;;2.37;1.90;;;14.90;98.10;;;;;;5032297;28;20265;-86
2021/04/28 09:33:52;;;;;;;3.97;2.47;;;14.60;97.90;;;;;;5050159;28;20241;-85
2021/04/28 09:36:32;;;;;;;2.30;2.10;;;14.50;97.70;;;;;;5065377;28;20225;-85
2021/04/28 09:39:11;;;;;;;2.87;1.70;;;14.30;97.50;;;;;;5050702;28;20217;-83
2021/04/28 09:41:44;;;;;;;5.30;2.60;;;14.50;97.50;;;;;;5029432;28;20216;-84
2021/04/28 09:44:19;;;;;;;2.10;2.00;;;14.70;96.50;;;;;;5047797;28;20616;-84
2021/04/28 09:46:54;;;;;;;3.37;2.10;;;14.70;95.20;;;;;;5051448;28;20211;-83
2021/04/28 09:49:19;;;;;;;3.43;2.50;;;14.70;96.80;;;;;;5066945;28;20306;-83
2021/04/28 09:51:54;;;;;;;3.90;2.10;;;14.60;96.10;;;;;;5032094;28;20690;-85
2021/04/28 09:54:20;;;;;;;4.60;2.90;;;14.20;94.40;;;;;;5049581;28;20225;-83
2021/04/28 09:56:46;;;;;;;3.90;1.97;;;14.20;95.30;;;;;;5024750;28;20236;-86
2021/04/28 09:59:12;;;;;;;8.30;1.90;;;14.60;95.10;;;;;;5050129;28;20390;-84
2021/04/28 10:01:41;;;;;;;4.70;2.60;;;14.60;93.60;;;;;;5036816;28;20188;-84
2021/04/28 10:04:08;;;;;;;3.20;2.23;;;14.30;95.80;;;;;;5036988;28;20255;-85
2021/04/28 10:06:41;;;;;;;2.97;1.60;;;14.30;95.30;;;;;;5055406;28;20304;-88
2021/04/28 10:09:26;;;;;;;3.33;2.73;;;14.40;95.30;;;;;;5054229;28;20213;-83
2021/04/28 10:11:52;;;;;;;3.03;2.00;;;14.60;96.50;;;;;;5054912;28;20319;-88
2021/04/28 10:14:18;;;;;;;3.67;2.30;;;14.80;99.00;;;;;;5036916;28;20201;-85
2021/04/28 10:16:46;;;;;;;4.43;2.00;;;15.50;99.90;;;;;;5054879;28;20795;-82
2021/04/28 10:19:12;;;;;;;5.20;3.13;;;16.40;99.90;;;;;;5053191;28;20291;-82
2021/04/28 10:21:39;;;;;;;3.07;2.70;;;15.80;99.90;;;;;;5071060;28;20320;-83
2021/04/28 10:24:06;;;;;;;5.40;2.53;;;15.10;99.90;;;;;;5055009;28;20624;-84
2021/04/28 10:26:33;;;;;;;6.27;2.40;;;14.70;99.90;;;;;;5037370;28;20209;-84
2021/04/28 10:29:01;;;;;;;2.43;2.23;;;15.00;99.90;;;;;;5040189;28;20189;-82
2021/04/28 10:31:28;;;;;;;3.30;2.23;;;14.80;99.90;;;;;;5070670;28;20221;-82
2021/04/28 10:33:55;;;;;;;3.47;2.40;;;15.40;99.90;;;;;;5050191;28;20216;-82
2021/04/28 10:36:21;;;;;;;3.33;2.30;;;15.10;99.90;;;;;;5053959;28;20763;-82
2021/04/28 10:38:47;;;;;;;3.87;2.57;;;15.90;99.90;;;;;;5046058;28;20212;-83
2021/04/28 10:41:38;;;;;;;6.53;2.57;;;15.50;99.90;;;;;;5052144;28;20196;-84
2021/04/28 10:44:06;;;;;;;4.30;3.17;;;15.40;99.90;;;;;;5053864;28;20189;-84
2021/04/28 10:46:32;;;;;;;6.93;2.83;;;15.50;99.90;;;;;;5061196;28;20217;-82
2021/04/28 10:49:15;;;;;;;3.47;2.10;;;14.70;99.90;;;;;;5053784;28;20216;-82
2021/04/28 10:51:45;;;;;;;8.93;2.30;;;14.50;99.90;;;;;;5052460;28;20255;-83
2021/04/28 10:54:41;;;;;;;6.37;2.20;;;14.10;99.90;;;;;;5068254;28;20336;-84
2021/04/28 10:57:07;;;;;;;3.33;2.03;;;14.60;99.90;;;;;;5045974;28;20225;-82
2021/04/28 10:59:42;;;;;;;2.40;2.20;;;14.40;99.90;;;;;;5047616;28;20225;-83
2021/04/28 11:02:14;;;;;;;4.43;2.80;;;14.80;99.90;;;;;;5035258;28;20234;-83
2021/04/28 11:04:45;;;;;;;3.80;2.60;;;15.20;99.90;;;;;;5050666;28;20213;-82
2021/04/28 11:07:13;;;;;;;6.00;2.77;;;15.10;99.90;;;;;;5046186;28;20249;-85
2021/04/28 11:09:39;;;;;;;4.47;2.50;;;15.10;99.90;;;;;;5025085;28;20232;-86
2021/04/28 11:12:05;;;;;;;2.90;2.33;;;15.10;99.90;;;;;;5028959;28;20274;-84
2021/04/28 11:14:31;;;;;;;3.70;2.50;;;14.90;99.90;;;;;;5065515;28;20231;-83
2021/04/28 11:17:01;;;;;;;5.17;2.30;;;14.50;99.90;;;;;;5048727;28;20209;-84
2021/04/28 11:19:35;;;;;;;3.80;2.80;;;13.40;99.90;;;;;;5050958;28;20249;-86
2021/04/28 11:22:21;;;;;;;2.30;2.10;;;13.40;99.90;;;;;;5047469;28;20209;-81
2021/04/28 11:25:11;;;;;;;2.83;1.87;;;13.50;99.90;;;;;;5050231;28;20260;-81
2021/04/28 11:27:41;;;;;;;7.83;2.67;;;13.90;99.90;;;;;;5049541;28;20226;-84
2021/04/28 11:30:30;;;;;;;3.23;2.57;;;13.80;99.90;;;;;;5051220;28;20566;-82
2021/04/28 11:33:30;;;;;;;2.20;2.00;;;14.00;99.90;;;;;;5050375;28;20256;-83
2021/04/28 11:35:56;;;;;;;7.57;2.33;;;13.90;99.90;;;;;;5051536;28;20228;-81
2021/04/28 11:38:25;;;;;;;3.83;2.13;;;14.70;99.90;;;;;;5049709;28;20193;-83
2021/04/28 11:41:02;;;;;;;3.13;2.07;;;14.40;99.90;;;;;;5049597;28;20293;-81
2021/04/28 11:43:30;;;;;;;5.97;2.53;;;14.30;99.90;;;;;;5032362;28;20304;-83
2021/04/28 11:46:27;;;;;;;10.83;2.63;;;14.20;99.90;;;;;;5051355;28;20299;-81
2021/04/28 11:48:58;;;;;;;2.77;2.03;;;13.90;99.90;;;;;;5037098;28;20216;-81
2021/04/28 11:51:35;;;;;;;4.27;2.60;;;13.60;99.90;;;;;;5046700;28;20302;-86
2021/04/28 11:54:09;;;;;;;2.80;2.10;;;14.00;99.90;;;;;;5048032;28;20227;-81
2021/04/28 11:56:38;;;;;;;5.20;2.23;;;14.00;99.90;;;;;;5050510;28;20281;-85
2021/04/28 11:59:21;;;;;;;3.23;2.40;;;13.90;99.90;;;;;;5054567;28;20228;-84
2021/04/28 12:01:47;;;;;;;4.03;2.67;;;14.20;99.90;;;;;;5053152;28;20264;-82
2021/04/28 12:04:13;;;;;;;4.27;2.60;;;13.80;99.90;;;;;;5038998;28;20216;-84
2021/04/28 12:06:46;;;;;;;5.80;2.63;;;13.20;99.90;;;;;;5039267;28;20225;-84
2021/04/28 12:09:23;;;;;;;5.00;2.77;;;12.90;99.90;;;;;;5051924;28;20213;-83
2021/04/28 12:12:09;;;;;;;4.90;3.00;;;13.10;99.90;;;;;;5073344;28;20590;-82
2021/04/28 12:14:35;;;;;;;3.23;2.17;;;13.50;99.90;;;;;;5071270;28;20293;-81
2021/04/28 12:17:01;;;;;;;6.10;3.00;;;13.10;99.90;;;;;;5038485;28;21029;-82
2021/04/28 12:19:28;;;;;;;4.67;3.07;;;13.30;99.90;;;;;;5037660;28;20208;-82
2021/04/28 12:22:08;;;;;;;3.10;2.80;;;13.80;99.90;;;;;;5038943;28;20225;-83
2021/04/28 12:24:43;;;;;;;2.27;1.30;;;13.60;99.90;;;;;;5053876;28;20209;-81
2021/04/28 12:27:16;;;;;;;10.73;2.83;;;13.20;99.90;;;;;;5055387;28;20220;-83
2021/04/28 12:29:51;;;;;;;3.27;2.83;;;13.30;99.90;;;;;;5053588;28;20254;-81
2021/04/28 12:32:19;;;;;;;2.87;2.20;;;13.20;99.90;;;;;;5054271;28;20207;-82
2021/04/28 12:34:47;;;;;;;5.43;3.40;;;13.20;99.90;;;;;;5074109;28;20243;-83
2021/04/28 12:37:23;;;;;;;2.87;2.50;;;13.10;99.90;;;;;;5054009;28;20217;-81
2021/04/28 12:39:58;;;;;;;8.37;2.87;;;13.20;99.90;;;;;;5047510;28;20290;-84
2021/04/28 12:42:37;;;;;;;4.80;2.67;;;13.50;99.90;;;;;;5071134;28;20256;-81
2021/04/28 12:45:13;;;;;;;3.83;2.73;;;13.80;99.90;;;;;;5054365;28;20209;-82
2021/04/28 12:47:39;;;;;;;6.50;3.07;;;13.30;99.90;;;;;;5052157;28;20835;-83
2021/04/28 12:50:10;;;;;;;2.77;1.93;;;13.60;99.90;;;;;;5037701;28;20273;-82
2021/04/28 12:52:39;;;;;;;7.03;2.30;;;13.20;99.90;;;;;;5072304;28;20239;-83
2021/04/28 12:55:25;;;;;;;5.73;2.47;;;13.00;99.90;;;;;;5071068;28;20225;-84